createdAt,value
2023-03-27T00:00:01.745Z,7.70
2023-03-27T00:02:35.214Z,11.10
2023-03-27T00:05:08.503Z,13.90
2023-03-27T00:07:42.793Z,13.00
2023-03-27T00:10:16.928Z,11.80
2023-03-27T00:12:49.630Z,12.40
2023-03-27T00:15:23.057Z,10.80
2023-03-27T00:17:56.245Z,12.00
2023-03-27T00:20:30.441Z,12.00
2023-03-27T00:23:03.389Z,10.80
2023-03-27T00:25:38.584Z,10.40
2023-03-27T00:28:14.396Z,11.70
2023-03-27T00:30:49.267Z,11.80
2023-03-27T00:35:54.037Z,11.80
2023-03-27T00:38:26.677Z,10.70
2023-03-27T00:41:00.209Z,9.30
2023-03-27T00:43:35.479Z,11.10
2023-03-27T00:46:21.802Z,11.70
2023-03-27T00:48:56.827Z,11.20
2023-03-27T00:51:31.586Z,11.90
2023-03-27T00:54:06.557Z,12.90
2023-03-27T00:56:39.964Z,12.60
2023-03-27T00:59:17.536Z,12.70
2023-03-27T01:01:51.019Z,11.70
2023-03-27T01:07:00.527Z,10.20
2023-03-27T01:09:34.653Z,8.00
2023-03-27T01:12:21.393Z,6.40
2023-03-27T01:15:07.372Z,6.70
2023-03-27T01:17:54.062Z,6.80
2023-03-27T01:20:54.087Z,5.70
2023-03-27T01:24:04.871Z,5.80
2023-03-27T01:27:11.080Z,5.90
2023-03-27T01:30:04.319Z,5.10
2023-03-27T01:33:06.329Z,5.00
2023-03-27T01:36:10.337Z,3.80
2023-03-27T01:39:25.832Z,4.30
2023-03-27T01:42:06.374Z,4.00
2023-03-27T01:44:49.096Z,4.40
2023-03-27T01:47:32.129Z,3.90
2023-03-27T01:50:12.913Z,3.80
2023-03-27T01:52:49.702Z,4.20
2023-03-27T01:55:28.084Z,4.10
2023-03-27T01:58:06.354Z,3.60
2023-03-27T02:00:52.204Z,4.00
2023-03-27T02:03:30.207Z,4.00
2023-03-27T02:06:09.124Z,2.90
2023-03-27T02:08:48.893Z,3.20
2023-03-27T02:11:26.723Z,3.80
2023-03-27T02:14:04.184Z,3.50
2023-03-27T02:16:43.401Z,3.40
2023-03-27T02:19:21.234Z,3.60
2023-03-27T02:21:54.588Z,3.60
2023-03-27T02:24:29.414Z,4.20
2023-03-27T02:27:13.255Z,3.70
2023-03-27T02:30:05.423Z,3.50
2023-03-27T02:32:50.095Z,2.90
2023-03-27T02:35:41.625Z,3.80
2023-03-27T02:38:21.134Z,4.10
2023-03-27T02:41:07.615Z,4.80
2023-03-27T02:44:02.736Z,5.40
2023-03-27T02:47:01.767Z,3.70
2023-03-27T02:49:39.627Z,4.10
2023-03-27T02:52:15.546Z,5.30
2023-03-27T02:54:52.860Z,5.90
2023-03-27T02:57:32.098Z,6.30
2023-03-27T03:00:28.413Z,5.80
2023-03-27T03:03:28.328Z,5.60
2023-03-27T03:06:11.510Z,4.20
2023-03-27T03:08:47.207Z,5.20
2023-03-27T03:11:19.960Z,4.80
2023-03-27T03:13:52.439Z,5.20
2023-03-27T03:16:24.913Z,4.70
2023-03-27T03:18:58.942Z,5.00
2023-03-27T03:21:32.464Z,5.70
2023-03-27T03:26:36.533Z,3.90
2023-03-27T03:29:11.925Z,4.30
2023-03-27T03:31:46.156Z,3.90
2023-03-27T03:34:22.854Z,4.50
2023-03-27T03:36:55.798Z,5.00
2023-03-27T03:39:34.311Z,6.10
2023-03-27T03:42:07.325Z,6.40
2023-03-27T03:44:39.972Z,7.20
2023-03-27T03:47:23.675Z,8.50
2023-03-27T03:49:56.341Z,8.70
2023-03-27T03:52:29.278Z,10.60
2023-03-27T03:55:02.029Z,13.20
2023-03-27T03:57:34.835Z,15.50
2023-03-27T04:00:17.915Z,17.60
2023-03-27T04:02:55.131Z,16.50
2023-03-27T04:05:29.455Z,16.20
2023-03-27T04:08:07.481Z,16.90
2023-03-27T04:10:41.943Z,16.30
2023-03-27T04:13:22.565Z,16.70
2023-03-27T04:16:02.206Z,16.30
2023-03-27T04:18:41.836Z,16.40
2023-03-27T04:21:18.483Z,15.80
2023-03-27T04:23:51.745Z,15.50
2023-03-27T04:26:33.461Z,13.50
2023-03-27T04:29:30.645Z,11.70
2023-03-27T04:32:07.299Z,12.50
2023-03-27T04:34:46.835Z,13.00
2023-03-27T04:37:29.461Z,14.10
2023-03-27T04:40:21.301Z,14.10
2023-03-27T04:42:56.424Z,14.30
2023-03-27T04:45:29.138Z,15.10
2023-03-27T04:48:02.190Z,13.80
2023-03-27T04:50:38.110Z,15.50
2023-03-27T04:53:11.181Z,15.70
2023-03-27T04:55:52.513Z,15.00
2023-03-27T04:58:27.008Z,15.40
2023-03-27T05:01:00.643Z,16.00
2023-03-27T05:04:00.004Z,16.60
2023-03-27T05:06:42.143Z,17.00
2023-03-27T05:09:18.141Z,17.40
2023-03-27T05:11:51.568Z,16.90
2023-03-27T05:14:27.015Z,16.20
2023-03-27T05:17:01.256Z,15.80
2023-03-27T05:19:35.535Z,17.30
2023-03-27T05:22:08.197Z,16.70
2023-03-27T05:24:42.552Z,16.10
2023-03-27T05:27:15.635Z,16.70
2023-03-27T05:29:50.086Z,16.00
2023-03-27T05:32:23.083Z,17.00
2023-03-27T05:35:04.535Z,17.50
2023-03-27T05:37:42.633Z,16.60
2023-03-27T05:40:41.647Z,17.70
2023-03-27T05:43:15.204Z,17.10
2023-03-27T05:45:48.150Z,17.70
2023-03-27T05:48:21.724Z,16.70
2023-03-27T05:50:54.625Z,18.40
2023-03-27T05:53:29.180Z,18.50
2023-03-27T05:56:23.514Z,18.30
2023-03-27T05:59:02.725Z,19.40
2023-03-27T06:01:37.180Z,20.50
2023-03-27T06:04:11.440Z,19.70
2023-03-27T06:07:02.813Z,18.80
2023-03-27T06:09:37.243Z,18.80
2023-03-27T06:12:28.298Z,18.10
2023-03-27T06:15:10.191Z,20.60
2023-03-27T06:17:50.718Z,18.30
2023-03-27T06:20:25.363Z,17.70
2023-03-27T06:23:01.217Z,18.20
2023-03-27T06:25:38.341Z,18.30
2023-03-27T06:28:12.657Z,17.20
2023-03-27T06:30:51.759Z,17.10
2023-03-27T06:33:48.038Z,19.10
2023-03-27T06:36:44.254Z,19.10
2023-03-27T06:39:18.223Z,19.00
2023-03-27T06:41:56.692Z,20.10
2023-03-27T06:44:34.318Z,19.40
2023-03-27T06:47:21.828Z,19.10
2023-03-27T06:49:54.988Z,19.40
2023-03-27T06:52:28.628Z,19.10
2023-03-27T06:55:15.152Z,20.10
2023-03-27T06:57:58.597Z,18.50
2023-03-27T07:00:34.628Z,20.10
2023-03-27T07:03:40.417Z,20.20
2023-03-27T07:06:38.570Z,20.40
2023-03-27T07:09:15.264Z,20.20
2023-03-27T07:11:50.999Z,21.00
2023-03-27T07:14:26.448Z,20.10
2023-03-27T07:17:00.882Z,21.30
2023-03-27T07:19:38.951Z,20.90
2023-03-27T07:22:14.703Z,21.80
2023-03-27T07:24:47.453Z,23.30
2023-03-27T07:27:20.729Z,21.60
2023-03-27T07:32:36.660Z,21.40
2023-03-27T07:35:13.196Z,22.50
2023-03-27T07:37:52.063Z,22.80
2023-03-27T07:40:44.603Z,23.10
2023-03-27T07:43:46.296Z,22.10
2023-03-27T07:46:19.113Z,23.60
2023-03-27T07:48:52.616Z,22.30
2023-03-27T07:51:28.648Z,21.80
2023-03-27T07:54:04.569Z,21.90
2023-03-27T07:56:41.482Z,20.30
2023-03-27T07:59:37.314Z,22.20
2023-03-27T08:02:17.588Z,20.90
2023-03-27T08:04:52.366Z,21.30
2023-03-27T08:07:25.976Z,21.10
2023-03-27T08:10:03.427Z,21.30
2023-03-27T08:12:40.614Z,23.10
2023-03-27T08:15:14.360Z,23.50
2023-03-27T08:20:19.197Z,23.30
2023-03-27T08:23:07.707Z,23.20
2023-03-27T08:26:01.031Z,24.20
2023-03-27T08:28:38.524Z,19.40
2023-03-27T08:31:15.393Z,21.10
2023-03-27T08:33:50.043Z,18.30
2023-03-27T08:36:28.746Z,16.40
2023-03-27T08:39:03.414Z,14.30
2023-03-27T08:41:46.893Z,13.60
2023-03-27T08:44:27.172Z,14.10
2023-03-27T08:47:05.114Z,13.40
2023-03-27T08:49:48.360Z,14.00
2023-03-27T08:52:30.362Z,13.60
2023-03-27T08:55:13.498Z,13.30
2023-03-27T08:57:55.657Z,13.50
2023-03-27T09:00:55.897Z,11.30
2023-03-27T09:03:37.891Z,9.20
2023-03-27T09:06:49.729Z,9.90
2023-03-27T09:10:08.106Z,8.60
2023-03-27T09:13:29.977Z,7.90
2023-03-27T09:16:16.332Z,8.20
2023-03-27T09:19:00.541Z,8.30
2023-03-27T09:21:45.524Z,9.10
2023-03-27T09:24:29.897Z,7.30
2023-03-27T09:27:32.936Z,7.10
2023-03-27T09:30:32.425Z,5.40
2023-03-27T09:33:25.891Z,5.20
2023-03-27T09:36:01.488Z,6.10
2023-03-27T09:38:39.035Z,5.90
2023-03-27T09:41:19.704Z,6.10
2023-03-27T09:44:01.152Z,7.10
2023-03-27T09:46:35.301Z,6.10
2023-03-27T09:49:14.174Z,7.40
2023-03-27T09:51:52.200Z,7.80
2023-03-27T09:54:57.776Z,8.60
2023-03-27T09:57:39.071Z,8.90
2023-03-27T10:00:31.614Z,10.10
2023-03-27T10:03:08.393Z,11.60
2023-03-27T10:05:44.716Z,15.30
2023-03-27T10:11:31.231Z,14.20
2023-03-27T10:14:19.773Z,14.80
2023-03-27T10:16:53.221Z,14.80
2023-03-27T10:22:14.269Z,18.00
2023-03-27T10:24:50.156Z,17.50
2023-03-27T10:27:41.122Z,18.10
2023-03-27T10:30:34.921Z,15.20
2023-03-27T10:33:36.971Z,15.80
2023-03-27T10:36:23.779Z,13.80
2023-03-27T10:38:59.561Z,13.50
2023-03-27T10:41:52.738Z,12.40
2023-03-27T10:44:29.019Z,13.70
2023-03-27T10:47:03.626Z,12.40
2023-03-27T10:49:45.578Z,12.30
2023-03-27T10:52:35.925Z,12.20
2023-03-27T10:55:34.966Z,12.10
2023-03-27T10:58:22.494Z,10.70
2023-03-27T11:01:01.501Z,10.40
2023-03-27T11:03:41.653Z,15.30
2023-03-27T11:06:19.322Z,11.60
2023-03-27T11:09:06.092Z,15.10
2023-03-27T11:11:51.034Z,17.00
2023-03-27T11:14:29.950Z,18.90
2023-03-27T11:17:09.143Z,19.20
2023-03-27T11:20:08.882Z,22.10
2023-03-27T11:23:06.244Z,21.80
2023-03-27T11:25:52.182Z,21.70
2023-03-27T11:28:38.091Z,20.60
2023-03-27T11:31:21.782Z,18.70
2023-03-27T11:33:57.962Z,18.40
2023-03-27T11:36:42.115Z,16.40
2023-03-27T11:39:29.313Z,15.60
2023-03-27T11:42:07.235Z,16.60
2023-03-27T11:44:40.667Z,14.50
2023-03-27T11:47:37.636Z,14.60
2023-03-27T11:50:25.071Z,13.70
2023-03-27T11:53:16.786Z,13.60
2023-03-27T11:56:22.275Z,12.00
2023-03-27T11:59:24.357Z,13.10
2023-03-27T12:02:15.180Z,11.80
2023-03-27T12:04:56.449Z,12.00
2023-03-27T12:07:53.868Z,11.60
2023-03-27T12:10:33.478Z,9.70
2023-03-27T12:14:01.135Z,9.50
2023-03-27T12:17:12.206Z,8.40
2023-03-27T12:20:33.801Z,8.50
2023-03-27T12:23:28.605Z,8.00
2023-03-27T12:26:44.028Z,8.40
2023-03-27T12:29:53.315Z,7.80
2023-03-27T12:32:46.345Z,7.10
2023-03-27T12:35:21.839Z,6.80
2023-03-27T12:38:02.515Z,6.00
2023-03-27T12:40:44.028Z,5.60
2023-03-27T12:43:34.204Z,6.20
2023-03-27T12:46:34.639Z,5.50
2023-03-27T12:49:48.084Z,5.10
2023-03-27T12:52:30.683Z,4.80
2023-03-27T12:55:39.490Z,4.80
2023-03-27T12:58:37.373Z,4.90
2023-03-27T13:02:01.455Z,4.00
2023-03-27T13:05:01.441Z,4.00
2023-03-27T13:07:40.668Z,4.60
2023-03-27T13:10:35.458Z,4.20
2023-03-27T13:13:39.762Z,3.80
2023-03-27T13:16:29.139Z,4.00
2023-03-27T13:19:21.282Z,4.00
2023-03-27T13:22:14.086Z,3.50
2023-03-27T13:25:12.403Z,3.50
2023-03-27T13:28:04.889Z,3.40
2023-03-27T13:30:47.699Z,3.40
2023-03-27T13:33:47.078Z,4.10
2023-03-27T13:36:33.922Z,4.50
2023-03-27T13:42:15.627Z,4.10
2023-03-27T13:45:04.727Z,3.90
2023-03-27T13:48:12.052Z,3.90
2023-03-27T13:51:19.963Z,4.80
2023-03-27T13:54:08.163Z,5.40
2023-03-27T13:57:02.579Z,4.70
2023-03-27T14:00:08.682Z,4.60
2023-03-27T14:03:19.601Z,4.80
2023-03-27T14:06:40.897Z,4.20
2023-03-27T14:09:25.860Z,5.20
2023-03-27T14:12:26.228Z,4.90
2023-03-27T14:15:34.666Z,4.00
2023-03-27T14:19:03.512Z,4.90
2023-03-27T14:21:56.242Z,3.70
2023-03-27T14:24:38.681Z,4.60
2023-03-27T14:27:34.097Z,6.60
2023-03-27T14:30:20.955Z,5.10
2023-03-27T14:33:29.166Z,4.90
2023-03-27T14:36:06.788Z,4.10
2023-03-27T14:38:42.065Z,4.60
2023-03-27T14:41:26.018Z,4.10
2023-03-27T14:44:04.510Z,4.00
2023-03-27T14:46:49.415Z,5.00
2023-03-27T14:49:27.267Z,4.30
2023-03-27T14:52:08.171Z,3.90
2023-03-27T14:55:18.504Z,3.60
2023-03-27T14:57:58.457Z,3.20
2023-03-27T15:00:36.879Z,6.30
2023-03-27T15:03:16.569Z,3.40
2023-03-27T15:06:06.909Z,4.10
2023-03-27T15:08:50.477Z,3.10
2023-03-27T15:11:49.205Z,3.90
2023-03-27T15:14:33.376Z,3.20
2023-03-27T15:17:10.272Z,3.30
2023-03-27T15:19:48.793Z,3.40
2023-03-27T15:22:31.299Z,3.50
2023-03-27T15:25:07.487Z,4.20
2023-03-27T15:27:43.616Z,3.90
2023-03-27T15:30:27.736Z,3.20
2023-03-27T15:35:37.514Z,4.60
2023-03-27T15:38:14.516Z,3.40
2023-03-27T15:40:48.194Z,4.20
2023-03-27T15:46:15.359Z,3.70
2023-03-27T15:48:55.719Z,3.00
2023-03-27T15:51:34.960Z,3.00
2023-03-27T15:54:27.535Z,3.30
2023-03-27T15:57:10.041Z,3.00
2023-03-27T15:59:52.855Z,3.10
2023-03-27T16:02:28.870Z,3.00
2023-03-27T16:05:02.974Z,3.10
2023-03-27T16:07:47.764Z,2.70
2023-03-27T16:10:34.278Z,3.20
2023-03-27T16:13:09.505Z,3.30
2023-03-27T16:15:46.882Z,3.10
2023-03-27T16:18:27.227Z,2.90
2023-03-27T16:21:09.027Z,3.00
2023-03-27T16:23:42.452Z,2.80
2023-03-27T16:26:18.063Z,2.50
2023-03-27T16:28:51.361Z,2.70
2023-03-27T16:31:24.490Z,2.90
2023-03-27T16:33:58.725Z,2.30
2023-03-27T16:36:34.047Z,2.70
2023-03-27T16:39:08.067Z,2.20
2023-03-27T16:41:40.756Z,2.10
2023-03-27T16:44:13.736Z,2.60
2023-03-27T16:46:46.969Z,2.50
2023-03-27T16:49:20.352Z,2.20
2023-03-27T16:51:53.399Z,3.10
2023-03-27T16:54:26.900Z,1.90
2023-03-27T16:56:59.671Z,2.90
2023-03-27T16:59:32.883Z,2.30
2023-03-27T17:02:05.817Z,2.30
2023-03-27T17:04:39.045Z,2.10
2023-03-27T17:07:12.235Z,3.20
2023-03-27T17:09:45.035Z,2.20
2023-03-27T17:12:17.592Z,5.20
2023-03-27T17:14:50.568Z,2.90
2023-03-27T17:17:23.278Z,2.30
2023-03-27T17:19:57.822Z,2.00
2023-03-27T17:22:31.755Z,2.40
2023-03-27T17:25:06.276Z,3.20
2023-03-27T17:27:39.215Z,2.40
2023-03-27T17:30:16.070Z,2.80
2023-03-27T17:33:00.000Z,2.30
2023-03-27T17:35:46.796Z,3.70
2023-03-27T17:38:24.105Z,2.70
2023-03-27T17:41:01.198Z,2.70
2023-03-27T17:43:35.765Z,2.40
2023-03-27T17:46:09.966Z,2.20
2023-03-27T17:48:44.591Z,2.20
2023-03-27T17:51:17.527Z,2.60
2023-03-27T17:53:51.228Z,2.50
2023-03-27T17:56:28.413Z,2.70
2023-03-27T17:59:11.755Z,3.50
2023-03-27T18:01:50.820Z,4.50
2023-03-27T18:04:25.925Z,4.10
2023-03-27T18:07:03.400Z,2.50
2023-03-27T18:09:39.217Z,1.90
2023-03-27T18:14:48.528Z,1.90
2023-03-27T18:17:22.712Z,2.10
2023-03-27T18:19:56.776Z,2.00
2023-03-27T18:22:29.767Z,2.10
2023-03-27T18:25:03.874Z,2.00
2023-03-27T18:27:40.312Z,2.20
2023-03-27T18:30:18.503Z,2.30
2023-03-27T18:32:51.825Z,2.40
2023-03-27T18:35:26.759Z,2.20
2023-03-27T18:38:04.134Z,2.30
2023-03-27T18:40:37.978Z,2.20
2023-03-27T18:43:13.842Z,2.20
2023-03-27T18:45:48.098Z,2.30
2023-03-27T18:48:20.733Z,2.40
2023-03-27T18:50:58.953Z,2.20
2023-03-27T18:53:32.246Z,2.20
2023-03-27T18:56:05.114Z,2.10
2023-03-27T18:58:38.115Z,2.70
2023-03-27T19:01:12.826Z,2.50
2023-03-27T19:03:46.220Z,2.50
2023-03-27T19:06:20.006Z,3.20
2023-03-27T19:11:24.405Z,2.40
2023-03-27T19:14:32.825Z,2.30
2023-03-27T19:17:24.810Z,2.70
2023-03-27T19:20:18.474Z,2.40
2023-03-27T19:23:12.134Z,2.60
2023-03-27T19:25:53.153Z,3.20
2023-03-27T19:28:26.236Z,3.10
2023-03-27T19:31:05.531Z,2.50
2023-03-27T19:33:38.704Z,2.80
2023-03-27T19:36:13.261Z,2.50
2023-03-27T19:38:45.908Z,3.20
2023-03-27T19:41:20.494Z,2.70
2023-03-27T19:43:53.485Z,2.50
2023-03-27T19:46:27.014Z,2.30
2023-03-27T19:49:01.263Z,3.10
2023-03-27T19:51:44.312Z,3.40
2023-03-27T19:54:18.648Z,3.00
2023-03-27T19:56:51.473Z,3.00
2023-03-27T19:59:30.740Z,3.00
2023-03-27T20:02:04.587Z,2.80
2023-03-27T20:04:37.254Z,2.80
2023-03-27T20:07:10.448Z,2.90
2023-03-27T20:09:43.259Z,2.60
2023-03-27T20:12:16.601Z,3.40
2023-03-27T20:15:02.941Z,2.40
2023-03-27T20:17:43.395Z,3.10
2023-03-27T20:20:16.829Z,3.00
2023-03-27T20:22:57.755Z,2.60
2023-03-27T20:25:33.921Z,2.80
2023-03-27T20:28:08.386Z,3.00
2023-03-27T20:30:42.665Z,3.00
2023-03-27T20:33:19.434Z,2.80
2023-03-27T20:35:53.002Z,3.50
2023-03-27T20:38:29.265Z,3.00
2023-03-27T20:41:04.032Z,2.90
2023-03-27T20:43:39.166Z,3.50
2023-03-27T20:46:14.495Z,3.00
2023-03-27T20:48:53.819Z,3.20
2023-03-27T20:51:31.547Z,3.20
2023-03-27T20:54:10.376Z,3.50
2023-03-27T20:56:44.565Z,3.20
2023-03-27T20:59:17.222Z,3.50
2023-03-27T21:01:50.621Z,3.80
2023-03-27T21:04:26.206Z,3.30
2023-03-27T21:06:59.314Z,3.30
2023-03-27T21:09:32.514Z,3.20
2023-03-27T21:12:05.358Z,3.80
2023-03-27T21:14:38.158Z,3.80
2023-03-27T21:17:11.204Z,4.20
2023-03-27T21:19:44.198Z,3.60
2023-03-27T21:22:16.827Z,3.30
2023-03-27T21:24:49.997Z,3.80
2023-03-27T21:27:22.678Z,3.50
2023-03-27T21:29:55.539Z,4.20
2023-03-27T21:32:29.355Z,4.10
2023-03-27T21:35:02.385Z,3.60
2023-03-27T21:37:35.026Z,4.00
2023-03-27T21:40:09.221Z,4.40
2023-03-27T21:42:41.847Z,3.50
2023-03-27T21:45:14.716Z,3.80
2023-03-27T21:47:48.070Z,3.50
2023-03-27T21:50:21.448Z,4.10
2023-03-27T21:52:54.107Z,3.90
2023-03-27T21:55:26.737Z,4.60
2023-03-27T21:57:59.222Z,4.20
2023-03-27T22:00:32.118Z,3.90
2023-03-27T22:03:04.811Z,3.60
2023-03-27T22:05:39.635Z,4.20
2023-03-27T22:08:12.158Z,3.40
2023-03-27T22:10:45.128Z,4.00
2023-03-27T22:13:17.770Z,3.70
2023-03-27T22:15:50.324Z,3.90
2023-03-27T22:18:23.257Z,4.00
2023-03-27T22:20:59.047Z,3.40
2023-03-27T22:23:33.911Z,4.00
2023-03-27T22:26:07.537Z,3.70
2023-03-27T22:28:42.457Z,3.80
2023-03-27T22:31:16.979Z,3.70
2023-03-27T22:33:49.632Z,3.80
2023-03-27T22:36:22.320Z,4.00
2023-03-27T22:38:55.505Z,4.00
2023-03-27T22:41:29.085Z,3.90
2023-03-27T22:44:03.868Z,3.80
2023-03-27T22:46:40.351Z,3.70
2023-03-27T22:49:14.731Z,3.90
2023-03-27T22:51:47.411Z,4.10
2023-03-27T22:54:20.145Z,2.70
2023-03-27T22:56:55.543Z,3.80
2023-03-27T22:59:28.765Z,3.80
2023-03-27T23:02:03.093Z,4.30
2023-03-27T23:04:36.583Z,3.50
2023-03-27T23:07:09.110Z,4.50
2023-03-27T23:09:42.588Z,3.90
2023-03-27T23:12:15.065Z,4.20
2023-03-27T23:14:49.537Z,4.20
2023-03-27T23:17:22.198Z,4.00
2023-03-27T23:19:55.316Z,3.60
2023-03-27T23:22:27.866Z,4.30
2023-03-27T23:25:00.571Z,3.90
2023-03-27T23:27:33.526Z,3.70
2023-03-27T23:30:07.065Z,3.70
2023-03-27T23:32:39.622Z,4.40
2023-03-27T23:35:15.057Z,4.00
2023-03-27T23:37:49.266Z,3.70
2023-03-27T23:40:22.015Z,4.60
2023-03-27T23:42:54.625Z,3.80
2023-03-27T23:45:27.094Z,3.90
2023-03-27T23:47:59.563Z,4.20
2023-03-27T23:50:32.147Z,4.20
2023-03-27T23:53:04.903Z,4.00
2023-03-27T23:55:39.065Z,3.20
2023-03-27T23:58:11.823Z,3.90
